sensor_id;sensor_type;location;lat;lon;timestamp;P1;durP1;ratioP1;P2;durP2;ratioP2
21979;SDS011;11154;48.558;9.234;2022-12-05T00:00:54;13.05;;;8.73;;
21979;SDS011;11154;48.558;9.234;2022-12-05T00:03:02;15.88;;;8.05;;
21979;SDS011;11154;48.558;9.234;2022-12-05T00:05:04;14.43;;;8.45;;
21979;SDS011;11154;48.558;9.234;2022-12-05T00:07:06;13.20;;;7.80;;
21979;SDS011;11154;48.558;9.234;2022-12-05T00:09:09;14.70;;;8.40;;
21979;SDS011;11154;48.558;9.234;2022-12-05T00:11:13;13.52;;;8.05;;
21979;SDS011;11154;48.558;9.234;2022-12-05T00:13:16;14.98;;;7.78;;
21979;SDS011;11154;48.558;9.234;2022-12-05T00:15:17;14.02;;;8.57;;
21979;SDS011;11154;48.558;9.234;2022-12-05T00:17:20;13.40;;;9.27;;
21979;SDS011;11154;48.558;9.234;2022-12-05T00:19:22;13.20;;;8.45;;
21979;SDS011;11154;48.558;9.234;2022-12-05T00:21:25;12.25;;;8.02;;
21979;SDS011;11154;48.558;9.234;2022-12-05T00:23:28;13.07;;;7.72;;
21979;SDS011;11154;48.558;9.234;2022-12-05T00:25:30;14.63;;;8.25;;
21979;SDS011;11154;48.558;9.234;2022-12-05T00:27:31;13.88;;;8.07;;
21979;SDS011;11154;48.558;9.234;2022-12-05T00:29:33;14.05;;;8.82;;
21979;SDS011;11154;48.558;9.234;2022-12-05T00:31:35;14.15;;;8.38;;
21979;SDS011;11154;48.558;9.234;2022-12-05T00:33:38;12.82;;;8.02;;
21979;SDS011;11154;48.558;9.234;2022-12-05T00:35:40;15.70;;;8.45;;
21979;SDS011;11154;48.558;9.234;2022-12-05T00:37:41;13.07;;;8.30;;
21979;SDS011;11154;48.558;9.234;2022-12-05T00:39:43;13.13;;;8.00;;
21979;SDS011;11154;48.558;9.234;2022-12-05T00:41:45;15.00;;;9.48;;
21979;SDS011;11154;48.558;9.234;2022-12-05T00:43:46;13.55;;;8.05;;
21979;SDS011;11154;48.558;9.234;2022-12-05T00:45:48;15.48;;;9.02;;
21979;SDS011;11154;48.558;9.234;2022-12-05T00:47:50;15.77;;;8.63;;
21979;SDS011;11154;48.558;9.234;2022-12-05T00:49:53;13.48;;;7.95;;
21979;SDS011;11154;48.558;9.234;2022-12-05T00:51:55;15.75;;;8.43;;
21979;SDS011;11154;48.558;9.234;2022-12-05T00:53:57;13.95;;;8.10;;
21979;SDS011;11154;48.558;9.234;2022-12-05T00:56:00;14.00;;;8.60;;
21979;SDS011;11154;48.558;9.234;2022-12-05T00:58:02;14.18;;;8.32;;
21979;SDS011;11154;48.558;9.234;2022-12-05T01:00:04;13.60;;;7.35;;
21979;SDS011;11154;48.558;9.234;2022-12-05T01:02:07;16.02;;;8.45;;
21979;SDS011;11154;48.558;9.234;2022-12-05T01:04:10;14.88;;;8.13;;
21979;SDS011;11154;48.558;9.234;2022-12-05T01:06:14;16.02;;;8.98;;
21979;SDS011;11154;48.558;9.234;2022-12-05T01:08:16;16.58;;;9.27;;
21979;SDS011;11154;48.558;9.234;2022-12-05T01:10:18;15.35;;;8.13;;
21979;SDS011;11154;48.558;9.234;2022-12-05T01:12:20;16.20;;;8.80;;
21979;SDS011;11154;48.558;9.234;2022-12-05T01:14:22;18.00;;;9.15;;
21979;SDS011;11154;48.558;9.234;2022-12-05T01:16:26;16.20;;;8.20;;
21979;SDS011;11154;48.558;9.234;2022-12-05T01:18:30;17.58;;;8.18;;
21979;SDS011;11154;48.558;9.234;2022-12-05T01:20:32;16.58;;;9.40;;
21979;SDS011;11154;48.558;9.234;2022-12-05T01:22:35;16.85;;;9.55;;
21979;SDS011;11154;48.558;9.234;2022-12-05T01:24:37;13.27;;;8.57;;
21979;SDS011;11154;48.558;9.234;2022-12-05T01:26:39;17.30;;;9.48;;
21979;SDS011;11154;48.558;9.234;2022-12-05T01:28:42;19.00;;;9.30;;
21979;SDS011;11154;48.558;9.234;2022-12-05T01:30:44;12.57;;;7.75;;
21979;SDS011;11154;48.558;9.234;2022-12-05T01:32:48;17.00;;;8.57;;
21979;SDS011;11154;48.558;9.234;2022-12-05T01:34:50;16.88;;;8.88;;
21979;SDS011;11154;48.558;9.234;2022-12-05T01:36:51;16.90;;;10.70;;
21979;SDS011;11154;48.558;9.234;2022-12-05T01:38:54;18.33;;;9.68;;
21979;SDS011;11154;48.558;9.234;2022-12-05T01:41:00;18.67;;;8.75;;
21979;SDS011;11154;48.558;9.234;2022-12-05T01:43:05;16.88;;;9.00;;
21979;SDS011;11154;48.558;9.234;2022-12-05T01:45:12;15.00;;;8.65;;
21979;SDS011;11154;48.558;9.234;2022-12-05T01:47:15;19.27;;;11.10;;
21979;SDS011;11154;48.558;9.234;2022-12-05T01:49:19;15.30;;;9.35;;
21979;SDS011;11154;48.558;9.234;2022-12-05T01:51:24;20.20;;;9.85;;
21979;SDS011;11154;48.558;9.234;2022-12-05T01:53:26;19.05;;;9.73;;
21979;SDS011;11154;48.558;9.234;2022-12-05T01:55:30;14.82;;;9.07;;
21979;SDS011;11154;48.558;9.234;2022-12-05T01:57:32;16.92;;;9.75;;
21979;SDS011;11154;48.558;9.234;2022-12-05T01:59:35;16.20;;;9.70;;
21979;SDS011;11154;48.558;9.234;2022-12-05T02:01:39;15.80;;;11.30;;
21979;SDS011;11154;48.558;9.234;2022-12-05T02:03:41;17.55;;;11.02;;
21979;SDS011;11154;48.558;9.234;2022-12-05T02:05:47;16.23;;;11.82;;
21979;SDS011;11154;48.558;9.234;2022-12-05T02:07:51;17.48;;;12.10;;
21979;SDS011;11154;48.558;9.234;2022-12-05T02:09:53;19.83;;;13.50;;
21979;SDS011;11154;48.558;9.234;2022-12-05T02:11:57;19.83;;;14.02;;
21979;SDS011;11154;48.558;9.234;2022-12-05T02:14:08;19.52;;;14.23;;
21979;SDS011;11154;48.558;9.234;2022-12-05T02:16:22;18.38;;;12.98;;
21979;SDS011;11154;48.558;9.234;2022-12-05T02:18:38;22.73;;;14.90;;
21979;SDS011;11154;48.558;9.234;2022-12-05T02:20:53;49.33;;;24.35;;
21979;SDS011;11154;48.558;9.234;2022-12-05T02:23:27;70.78;;;33.97;;
21979;SDS011;11154;48.558;9.234;2022-12-05T02:25:50;31.50;;;19.15;;
21979;SDS011;11154;48.558;9.234;2022-12-05T02:28:08;19.58;;;14.60;;
21979;SDS011;11154;48.558;9.234;2022-12-05T02:30:23;36.03;;;21.30;;
21979;SDS011;11154;48.558;9.234;2022-12-05T02:32:32;38.35;;;21.40;;
21979;SDS011;11154;48.558;9.234;2022-12-05T02:34:42;19.77;;;14.15;;
21979;SDS011;11154;48.558;9.234;2022-12-05T02:36:52;19.30;;;14.10;;
21979;SDS011;11154;48.558;9.234;2022-12-05T02:38:59;18.25;;;13.55;;
21979;SDS011;11154;48.558;9.234;2022-12-05T02:41:09;28.30;;;18.35;;
21979;SDS011;11154;48.558;9.234;2022-12-05T02:43:18;24.33;;;15.93;;
21979;SDS011;11154;48.558;9.234;2022-12-05T02:45:24;28.02;;;18.05;;
21979;SDS011;11154;48.558;9.234;2022-12-05T02:47:29;37.35;;;21.60;;
21979;SDS011;11154;48.558;9.234;2022-12-05T02:49:35;24.70;;;16.08;;
21979;SDS011;11154;48.558;9.234;2022-12-05T02:51:39;26.50;;;17.55;;
21979;SDS011;11154;48.558;9.234;2022-12-05T02:53:43;20.83;;;14.68;;
21979;SDS011;11154;48.558;9.234;2022-12-05T02:55:47;17.75;;;13.35;;
21979;SDS011;11154;48.558;9.234;2022-12-05T02:57:51;18.38;;;13.95;;
21979;SDS011;11154;48.558;9.234;2022-12-05T02:59:56;19.35;;;14.82;;
21979;SDS011;11154;48.558;9.234;2022-12-05T03:02:00;18.67;;;14.13;;
21979;SDS011;11154;48.558;9.234;2022-12-05T03:04:03;19.25;;;14.60;;
21979;SDS011;11154;48.558;9.234;2022-12-05T03:06:08;18.23;;;13.65;;
21979;SDS011;11154;48.558;9.234;2022-12-05T03:08:15;19.35;;;13.63;;
21979;SDS011;11154;48.558;9.234;2022-12-05T03:10:22;19.00;;;14.32;;
21979;SDS011;11154;48.558;9.234;2022-12-05T03:12:29;19.00;;;14.00;;
21979;SDS011;11154;48.558;9.234;2022-12-05T03:14:37;19.75;;;14.07;;
21979;SDS011;11154;48.558;9.234;2022-12-05T03:16:43;18.80;;;14.02;;
21979;SDS011;11154;48.558;9.234;2022-12-05T03:18:51;19.17;;;14.02;;
21979;SDS011;11154;48.558;9.234;2022-12-05T03:20:58;18.73;;;14.15;;
21979;SDS011;11154;48.558;9.234;2022-12-05T03:23:05;19.13;;;13.68;;
21979;SDS011;11154;48.558;9.234;2022-12-05T03:25:12;19.67;;;14.00;;
21979;SDS011;11154;48.558;9.234;2022-12-05T03:27:17;19.10;;;14.10;;
21979;SDS011;11154;48.558;9.234;2022-12-05T03:29:24;17.88;;;13.77;;
21979;SDS011;11154;48.558;9.234;2022-12-05T03:31:32;18.85;;;13.75;;
21979;SDS011;11154;48.558;9.234;2022-12-05T03:33:40;19.73;;;14.93;;
21979;SDS011;11154;48.558;9.234;2022-12-05T03:35:49;19.13;;;14.00;;
21979;SDS011;11154;48.558;9.234;2022-12-05T03:37:56;20.10;;;14.45;;
21979;SDS011;11154;48.558;9.234;2022-12-05T03:40:05;17.80;;;13.35;;
21979;SDS011;11154;48.558;9.234;2022-12-05T03:42:11;18.58;;;14.07;;
21979;SDS011;11154;48.558;9.234;2022-12-05T03:44:16;17.15;;;13.60;;
21979;SDS011;11154;48.558;9.234;2022-12-05T03:46:23;19.95;;;14.80;;
21979;SDS011;11154;48.558;9.234;2022-12-05T03:48:29;19.63;;;14.48;;
21979;SDS011;11154;48.558;9.234;2022-12-05T03:50:36;20.75;;;14.57;;
21979;SDS011;11154;48.558;9.234;2022-12-05T03:52:43;17.27;;;13.27;;
21979;SDS011;11154;48.558;9.234;2022-12-05T03:54:48;17.35;;;13.05;;
21979;SDS011;11154;48.558;9.234;2022-12-05T03:56:53;18.15;;;13.60;;
21979;SDS011;11154;48.558;9.234;2022-12-05T03:59:01;17.67;;;13.13;;
21979;SDS011;11154;48.558;9.234;2022-12-05T04:01:07;19.02;;;14.13;;
21979;SDS011;11154;48.558;9.234;2022-12-05T04:03:12;20.70;;;12.32;;
21979;SDS011;11154;48.558;9.234;2022-12-05T04:05:19;17.30;;;12.07;;
21979;SDS011;11154;48.558;9.234;2022-12-05T04:07:24;17.83;;;12.07;;
21979;SDS011;11154;48.558;9.234;2022-12-05T04:09:34;17.05;;;11.85;;
21979;SDS011;11154;48.558;9.234;2022-12-05T04:11:41;16.15;;;10.55;;
21979;SDS011;11154;48.558;9.234;2022-12-05T04:13:49;19.05;;;11.02;;
21979;SDS011;11154;48.558;9.234;2022-12-05T04:15:53;15.93;;;10.65;;
21979;SDS011;11154;48.558;9.234;2022-12-05T04:18:17;16.25;;;9.73;;
21979;SDS011;11154;48.558;9.234;2022-12-05T04:20:21;14.73;;;9.55;;
21979;SDS011;11154;48.558;9.234;2022-12-05T04:22:46;16.42;;;10.07;;
21979;SDS011;11154;48.558;9.234;2022-12-05T04:24:50;18.88;;;9.02;;
21979;SDS011;11154;48.558;9.234;2022-12-05T04:27:17;13.98;;;8.38;;
21979;SDS011;11154;48.558;9.234;2022-12-05T04:29:24;14.07;;;7.47;;
21979;SDS011;11154;48.558;9.234;2022-12-05T04:31:30;11.98;;;7.22;;
21979;SDS011;11154;48.558;9.234;2022-12-05T04:33:37;12.57;;;8.10;;
21979;SDS011;11154;48.558;9.234;2022-12-05T04:35:44;13.25;;;8.73;;
21979;SDS011;11154;48.558;9.234;2022-12-05T04:37:51;12.32;;;8.02;;
21979;SDS011;11154;48.558;9.234;2022-12-05T04:39:58;12.57;;;8.30;;
21979;SDS011;11154;48.558;9.234;2022-12-05T04:42:04;12.27;;;7.72;;
21979;SDS011;11154;48.558;9.234;2022-12-05T04:44:10;13.82;;;7.75;;
21979;SDS011;11154;48.558;9.234;2022-12-05T04:46:15;14.50;;;8.27;;
21979;SDS011;11154;48.558;9.234;2022-12-05T04:48:19;13.15;;;8.38;;
21979;SDS011;11154;48.558;9.234;2022-12-05T04:50:23;12.50;;;7.78;;
21979;SDS011;11154;48.558;9.234;2022-12-05T04:52:29;11.93;;;7.75;;
21979;SDS011;11154;48.558;9.234;2022-12-05T04:54:33;12.15;;;7.35;;
21979;SDS011;11154;48.558;9.234;2022-12-05T04:56:40;12.63;;;8.13;;
21979;SDS011;11154;48.558;9.234;2022-12-05T04:58:44;13.60;;;7.53;;
21979;SDS011;11154;48.558;9.234;2022-12-05T05:00:49;12.52;;;7.68;;
21979;SDS011;11154;48.558;9.234;2022-12-05T05:02:59;12.48;;;7.03;;
21979;SDS011;11154;48.558;9.234;2022-12-05T05:05:05;13.55;;;8.40;;
21979;SDS011;11154;48.558;9.234;2022-12-05T05:07:12;13.75;;;6.68;;
21979;SDS011;11154;48.558;9.234;2022-12-05T05:09:14;12.50;;;7.05;;
21979;SDS011;11154;48.558;9.234;2022-12-05T05:11:16;12.63;;;7.43;;
21979;SDS011;11154;48.558;9.234;2022-12-05T05:13:21;12.07;;;7.55;;
21979;SDS011;11154;48.558;9.234;2022-12-05T05:15:23;14.52;;;8.55;;
21979;SDS011;11154;48.558;9.234;2022-12-05T05:17:24;17.10;;;10.13;;
21979;SDS011;11154;48.558;9.234;2022-12-05T05:19:26;13.15;;;7.85;;
21979;SDS011;11154;48.558;9.234;2022-12-05T05:21:28;19.83;;;10.77;;
21979;SDS011;11154;48.558;9.234;2022-12-05T05:23:31;15.75;;;8.93;;
21979;SDS011;11154;48.558;9.234;2022-12-05T05:25:33;12.95;;;7.43;;
21979;SDS011;11154;48.558;9.234;2022-12-05T05:27:35;12.57;;;7.75;;
21979;SDS011;11154;48.558;9.234;2022-12-05T05:29:38;13.75;;;7.80;;
21979;SDS011;11154;48.558;9.234;2022-12-05T05:31:40;16.20;;;7.88;;
21979;SDS011;11154;48.558;9.234;2022-12-05T05:33:42;12.60;;;8.15;;
21979;SDS011;11154;48.558;9.234;2022-12-05T05:35:44;17.45;;;10.48;;
21979;SDS011;11154;48.558;9.234;2022-12-05T05:37:45;17.05;;;9.65;;
21979;SDS011;11154;48.558;9.234;2022-12-05T05:39:47;26.42;;;15.90;;
21979;SDS011;11154;48.558;9.234;2022-12-05T05:41:49;14.43;;;8.10;;
21979;SDS011;11154;48.558;9.234;2022-12-05T05:43:50;19.02;;;9.98;;
21979;SDS011;11154;48.558;9.234;2022-12-05T05:45:55;15.05;;;9.05;;
21979;SDS011;11154;48.558;9.234;2022-12-05T05:47:56;15.15;;;8.68;;
21979;SDS011;11154;48.558;9.234;2022-12-05T05:49:58;13.57;;;9.32;;
21979;SDS011;11154;48.558;9.234;2022-12-05T05:52:00;12.95;;;7.95;;
21979;SDS011;11154;48.558;9.234;2022-12-05T05:54:01;14.73;;;8.68;;
21979;SDS011;11154;48.558;9.234;2022-12-05T05:56:03;13.68;;;8.07;;
21979;SDS011;11154;48.558;9.234;2022-12-05T05:58:06;12.88;;;8.35;;
21979;SDS011;11154;48.558;9.234;2022-12-05T06:00:08;16.10;;;9.73;;
21979;SDS011;11154;48.558;9.234;2022-12-05T06:02:12;12.15;;;8.13;;
21979;SDS011;11154;48.558;9.234;2022-12-05T06:04:14;13.35;;;8.55;;
21979;SDS011;11154;48.558;9.234;2022-12-05T06:06:16;16.08;;;8.77;;
21979;SDS011;11154;48.558;9.234;2022-12-05T06:08:19;12.88;;;8.68;;
21979;SDS011;11154;48.558;9.234;2022-12-05T06:10:21;14.93;;;9.55;;
21979;SDS011;11154;48.558;9.234;2022-12-05T06:12:22;11.20;;;7.60;;
21979;SDS011;11154;48.558;9.234;2022-12-05T06:14:24;11.10;;;6.88;;
21979;SDS011;11154;48.558;9.234;2022-12-05T06:16:26;11.98;;;7.20;;
21979;SDS011;11154;48.558;9.234;2022-12-05T06:18:29;12.13;;;6.90;;
21979;SDS011;11154;48.558;9.234;2022-12-05T06:20:31;11.30;;;7.50;;
21979;SDS011;11154;48.558;9.234;2022-12-05T06:22:33;12.82;;;7.90;;
21979;SDS011;11154;48.558;9.234;2022-12-05T06:24:34;12.93;;;7.50;;
21979;SDS011;11154;48.558;9.234;2022-12-05T06:26:36;10.88;;;7.25;;
21979;SDS011;11154;48.558;9.234;2022-12-05T06:28:38;13.23;;;7.95;;
21979;SDS011;11154;48.558;9.234;2022-12-05T06:30:41;13.02;;;8.60;;
21979;SDS011;11154;48.558;9.234;2022-12-05T06:32:43;12.80;;;8.02;;
21979;SDS011;11154;48.558;9.234;2022-12-05T06:34:46;14.45;;;9.07;;
21979;SDS011;11154;48.558;9.234;2022-12-05T06:36:47;12.18;;;8.05;;
21979;SDS011;11154;48.558;9.234;2022-12-05T06:38:49;11.10;;;7.47;;
21979;SDS011;11154;48.558;9.234;2022-12-05T06:40:51;13.55;;;8.27;;
21979;SDS011;11154;48.558;9.234;2022-12-05T06:42:52;14.75;;;8.27;;
21979;SDS011;11154;48.558;9.234;2022-12-05T06:44:54;10.85;;;7.43;;
21979;SDS011;11154;48.558;9.234;2022-12-05T06:46:55;11.88;;;7.90;;
21979;SDS011;11154;48.558;9.234;2022-12-05T06:48:57;12.88;;;7.07;;
21979;SDS011;11154;48.558;9.234;2022-12-05T06:51:01;11.90;;;8.43;;
21979;SDS011;11154;48.558;9.234;2022-12-05T06:53:02;14.43;;;8.82;;
21979;SDS011;11154;48.558;9.234;2022-12-05T06:55:05;14.27;;;7.63;;
21979;SDS011;11154;48.558;9.234;2022-12-05T06:57:07;12.68;;;7.70;;
21979;SDS011;11154;48.558;9.234;2022-12-05T06:59:09;15.00;;;8.50;;
21979;SDS011;11154;48.558;9.234;2022-12-05T07:01:11;12.68;;;8.85;;
21979;SDS011;11154;48.558;9.234;2022-12-05T07:05:32;11.38;;;7.90;;
21979;SDS011;11154;48.558;9.234;2022-12-05T07:07:35;11.40;;;7.63;;
21979;SDS011;11154;48.558;9.234;2022-12-05T07:09:37;10.95;;;6.85;;
21979;SDS011;11154;48.558;9.234;2022-12-05T07:11:51;12.50;;;7.60;;
21979;SDS011;11154;48.558;9.234;2022-12-05T07:13:53;13.73;;;6.88;;
21979;SDS011;11154;48.558;9.234;2022-12-05T07:15:56;11.18;;;6.53;;
21979;SDS011;11154;48.558;9.234;2022-12-05T07:17:58;10.73;;;6.72;;
21979;SDS011;11154;48.558;9.234;2022-12-05T07:20:01;10.20;;;7.20;;
21979;SDS011;11154;48.558;9.234;2022-12-05T07:22:02;9.90;;;7.07;;
21979;SDS011;11154;48.558;9.234;2022-12-05T07:24:06;12.07;;;7.97;;
21979;SDS011;11154;48.558;9.234;2022-12-05T07:26:08;11.32;;;7.57;;
21979;SDS011;11154;48.558;9.234;2022-12-05T07:28:11;10.07;;;7.10;;
21979;SDS011;11154;48.558;9.234;2022-12-05T07:30:13;11.77;;;7.80;;
21979;SDS011;11154;48.558;9.234;2022-12-05T07:32:15;11.52;;;7.85;;
21979;SDS011;11154;48.558;9.234;2022-12-05T07:34:16;12.20;;;7.47;;
21979;SDS011;11154;48.558;9.234;2022-12-05T07:36:18;11.00;;;7.45;;
21979;SDS011;11154;48.558;9.234;2022-12-05T07:38:21;11.20;;;8.30;;
21979;SDS011;11154;48.558;9.234;2022-12-05T07:40:25;14.00;;;8.23;;
21979;SDS011;11154;48.558;9.234;2022-12-05T07:42:26;10.52;;;7.00;;
21979;SDS011;11154;48.558;9.234;2022-12-05T07:44:28;14.73;;;7.97;;
21979;SDS011;11154;48.558;9.234;2022-12-05T07:46:30;11.15;;;7.90;;
21979;SDS011;11154;48.558;9.234;2022-12-05T07:48:31;14.88;;;9.23;;
21979;SDS011;11154;48.558;9.234;2022-12-05T07:50:33;13.13;;;9.68;;
21979;SDS011;11154;48.558;9.234;2022-12-05T07:52:35;14.52;;;9.35;;
21979;SDS011;11154;48.558;9.234;2022-12-05T07:54:36;13.13;;;8.98;;
21979;SDS011;11154;48.558;9.234;2022-12-05T07:56:39;11.90;;;8.57;;
21979;SDS011;11154;48.558;9.234;2022-12-05T07:58:41;14.25;;;9.05;;
21979;SDS011;11154;48.558;9.234;2022-12-05T08:00:44;13.25;;;9.55;;
21979;SDS011;11154;48.558;9.234;2022-12-05T08:02:45;11.82;;;8.77;;
21979;SDS011;11154;48.558;9.234;2022-12-05T08:04:47;13.65;;;9.43;;
21979;SDS011;11154;48.558;9.234;2022-12-05T08:06:48;17.42;;;9.57;;
21979;SDS011;11154;48.558;9.234;2022-12-05T08:08:50;15.60;;;9.55;;
21979;SDS011;11154;48.558;9.234;2022-12-05T08:10:53;17.00;;;10.52;;
21979;SDS011;11154;48.558;9.234;2022-12-05T08:12:56;16.42;;;9.18;;
21979;SDS011;11154;48.558;9.234;2022-12-05T08:14:57;14.25;;;9.70;;
21979;SDS011;11154;48.558;9.234;2022-12-05T08:16:59;14.77;;;9.65;;
21979;SDS011;11154;48.558;9.234;2022-12-05T08:19:01;18.23;;;11.52;;
21979;SDS011;11154;48.558;9.234;2022-12-05T08:21:05;17.30;;;11.55;;
21979;SDS011;11154;48.558;9.234;2022-12-05T08:23:09;12.57;;;8.98;;
21979;SDS011;11154;48.558;9.234;2022-12-05T08:25:11;15.35;;;9.50;;
21979;SDS011;11154;48.558;9.234;2022-12-05T08:27:12;12.88;;;8.02;;
21979;SDS011;11154;48.558;9.234;2022-12-05T08:29:18;14.43;;;8.35;;
21979;SDS011;11154;48.558;9.234;2022-12-05T08:31:22;16.48;;;8.65;;
21979;SDS011;11154;48.558;9.234;2022-12-05T08:33:25;13.98;;;8.70;;
21979;SDS011;11154;48.558;9.234;2022-12-05T08:35:27;14.10;;;9.40;;
21979;SDS011;11154;48.558;9.234;2022-12-05T08:37:28;13.77;;;9.15;;
21979;SDS011;11154;48.558;9.234;2022-12-05T08:39:30;14.18;;;9.27;;
21979;SDS011;11154;48.558;9.234;2022-12-05T08:41:32;17.08;;;9.38;;
21979;SDS011;11154;48.558;9.234;2022-12-05T08:43:34;18.08;;;9.20;;
21979;SDS011;11154;48.558;9.234;2022-12-05T08:45:38;16.50;;;9.45;;
21979;SDS011;11154;48.558;9.234;2022-12-05T08:47:39;14.85;;;9.50;;
21979;SDS011;11154;48.558;9.234;2022-12-05T08:49:41;19.98;;;11.10;;
21979;SDS011;11154;48.558;9.234;2022-12-05T08:51:44;14.52;;;8.82;;
21979;SDS011;11154;48.558;9.234;2022-12-05T08:53:46;12.25;;;8.05;;
21979;SDS011;11154;48.558;9.234;2022-12-05T08:55:48;14.95;;;9.43;;
21979;SDS011;11154;48.558;9.234;2022-12-05T08:57:49;11.88;;;7.93;;
21979;SDS011;11154;48.558;9.234;2022-12-05T08:59:51;16.65;;;10.40;;
21979;SDS011;11154;48.558;9.234;2022-12-05T09:01:54;18.98;;;12.15;;
21979;SDS011;11154;48.558;9.234;2022-12-05T09:03:56;18.15;;;11.30;;
21979;SDS011;11154;48.558;9.234;2022-12-05T09:06:04;16.83;;;10.38;;
21979;SDS011;11154;48.558;9.234;2022-12-05T09:08:06;15.02;;;9.90;;
21979;SDS011;11154;48.558;9.234;2022-12-05T09:10:08;14.10;;;9.00;;
21979;SDS011;11154;48.558;9.234;2022-12-05T09:12:10;14.20;;;8.70;;
21979;SDS011;11154;48.558;9.234;2022-12-05T09:14:13;12.13;;;8.20;;
21979;SDS011;11154;48.558;9.234;2022-12-05T09:16:16;12.55;;;8.57;;
21979;SDS011;11154;48.558;9.234;2022-12-05T09:18:21;13.38;;;8.35;;
21979;SDS011;11154;48.558;9.234;2022-12-05T09:20:23;12.07;;;8.05;;
21979;SDS011;11154;48.558;9.234;2022-12-05T09:22:24;11.13;;;7.68;;
21979;SDS011;11154;48.558;9.234;2022-12-05T09:24:26;14.80;;;8.30;;
21979;SDS011;11154;48.558;9.234;2022-12-05T09:26:28;11.27;;;7.75;;
21979;SDS011;11154;48.558;9.234;2022-12-05T09:28:30;12.02;;;7.93;;
21979;SDS011;11154;48.558;9.234;2022-12-05T09:30:33;11.63;;;7.85;;
21979;SDS011;11154;48.558;9.234;2022-12-05T09:32:35;11.15;;;7.53;;
21979;SDS011;11154;48.558;9.234;2022-12-05T09:34:38;19.25;;;11.55;;
21979;SDS011;11154;48.558;9.234;2022-12-05T09:36:40;18.55;;;10.80;;
21979;SDS011;11154;48.558;9.234;2022-12-05T09:38:42;15.20;;;9.68;;
21979;SDS011;11154;48.558;9.234;2022-12-05T09:40:44;13.18;;;8.15;;
21979;SDS011;11154;48.558;9.234;2022-12-05T09:42:52;9.40;;;6.47;;
21979;SDS011;11154;48.558;9.234;2022-12-05T09:45:04;9.50;;;6.53;;
21979;SDS011;11154;48.558;9.234;2022-12-05T09:47:20;8.60;;;6.53;;
21979;SDS011;11154;48.558;9.234;2022-12-05T09:49:30;9.98;;;6.35;;
21979;SDS011;11154;48.558;9.234;2022-12-05T09:51:34;11.00;;;7.15;;
21979;SDS011;11154;48.558;9.234;2022-12-05T09:53:42;12.80;;;7.47;;
21979;SDS011;11154;48.558;9.234;2022-12-05T09:55:46;10.13;;;6.45;;
21979;SDS011;11154;48.558;9.234;2022-12-05T09:57:50;13.85;;;8.48;;
21979;SDS011;11154;48.558;9.234;2022-12-05T09:59:56;11.88;;;7.05;;
21979;SDS011;11154;48.558;9.234;2022-12-05T10:02:15;9.48;;;6.53;;
21979;SDS011;11154;48.558;9.234;2022-12-05T10:04:36;9.55;;;6.30;;
21979;SDS011;11154;48.558;9.234;2022-12-05T10:06:59;10.38;;;7.10;;
21979;SDS011;11154;48.558;9.234;2022-12-05T10:09:13;12.27;;;8.30;;
21979;SDS011;11154;48.558;9.234;2022-12-05T10:11:33;13.70;;;7.50;;
21979;SDS011;11154;48.558;9.234;2022-12-05T10:13:41;12.65;;;8.05;;
21979;SDS011;11154;48.558;9.234;2022-12-05T10:15:49;10.95;;;8.02;;
21979;SDS011;11154;48.558;9.234;2022-12-05T10:17:55;11.95;;;8.82;;
21979;SDS011;11154;48.558;9.234;2022-12-05T10:20:00;10.23;;;7.32;;
21979;SDS011;11154;48.558;9.234;2022-12-05T10:22:12;10.13;;;6.93;;
21979;SDS011;11154;48.558;9.234;2022-12-05T10:24:17;9.45;;;6.35;;
21979;SDS011;11154;48.558;9.234;2022-12-05T10:26:25;12.30;;;7.15;;
21979;SDS011;11154;48.558;9.234;2022-12-05T10:28:31;10.43;;;6.63;;
21979;SDS011;11154;48.558;9.234;2022-12-05T10:30:36;12.75;;;6.95;;
21979;SDS011;11154;48.558;9.234;2022-12-05T10:32:43;9.13;;;6.82;;
21979;SDS011;11154;48.558;9.234;2022-12-05T10:36:56;9.25;;;5.80;;
21979;SDS011;11154;48.558;9.234;2022-12-05T10:39:04;7.15;;;5.50;;
21979;SDS011;11154;48.558;9.234;2022-12-05T10:41:07;7.35;;;5.70;;
21979;SDS011;11154;48.558;9.234;2022-12-05T10:43:12;7.10;;;5.18;;
21979;SDS011;11154;48.558;9.234;2022-12-05T10:45:17;8.02;;;4.80;;
21979;SDS011;11154;48.558;9.234;2022-12-05T10:47:21;8.13;;;5.07;;
21979;SDS011;11154;48.558;9.234;2022-12-05T10:49:22;7.57;;;5.30;;
21979;SDS011;11154;48.558;9.234;2022-12-05T10:51:26;10.98;;;6.80;;
21979;SDS011;11154;48.558;9.234;2022-12-05T10:53:30;16.55;;;9.75;;
21979;SDS011;11154;48.558;9.234;2022-12-05T10:55:40;34.67;;;14.65;;
21979;SDS011;11154;48.558;9.234;2022-12-05T10:57:46;69.63;;;30.50;;
21979;SDS011;11154;48.558;9.234;2022-12-05T10:59:51;22.02;;;12.48;;
21979;SDS011;11154;48.558;9.234;2022-12-05T11:01:54;8.15;;;5.90;;
21979;SDS011;11154;48.558;9.234;2022-12-05T11:03:58;9.52;;;6.15;;
21979;SDS011;11154;48.558;9.234;2022-12-05T11:06:01;8.23;;;5.38;;
21979;SDS011;11154;48.558;9.234;2022-12-05T11:08:20;7.50;;;5.68;;
21979;SDS011;11154;48.558;9.234;2022-12-05T11:10:25;6.97;;;4.95;;
21979;SDS011;11154;48.558;9.234;2022-12-05T11:12:36;6.80;;;5.22;;
21979;SDS011;11154;48.558;9.234;2022-12-05T11:14:39;8.65;;;5.43;;
21979;SDS011;11154;48.558;9.234;2022-12-05T11:16:53;6.35;;;4.97;;
21979;SDS011;11154;48.558;9.234;2022-12-05T11:18:56;6.45;;;4.80;;
21979;SDS011;11154;48.558;9.234;2022-12-05T11:21:23;6.72;;;5.05;;
21979;SDS011;11154;48.558;9.234;2022-12-05T11:23:25;8.63;;;4.53;;
21979;SDS011;11154;48.558;9.234;2022-12-05T11:25:28;7.25;;;4.72;;
21979;SDS011;11154;48.558;9.234;2022-12-05T11:27:31;7.22;;;4.63;;
21979;SDS011;11154;48.558;9.234;2022-12-05T11:29:35;6.47;;;4.40;;
21979;SDS011;11154;48.558;9.234;2022-12-05T11:31:38;5.45;;;4.40;;
21979;SDS011;11154;48.558;9.234;2022-12-05T11:33:40;6.85;;;4.40;;
21979;SDS011;11154;48.558;9.234;2022-12-05T11:35:41;5.65;;;4.63;;
21979;SDS011;11154;48.558;9.234;2022-12-05T11:37:43;6.80;;;4.65;;
21979;SDS011;11154;48.558;9.234;2022-12-05T11:39:48;5.53;;;4.50;;
21979;SDS011;11154;48.558;9.234;2022-12-05T11:41:59;5.85;;;4.55;;
21979;SDS011;11154;48.558;9.234;2022-12-05T11:44:24;7.00;;;4.68;;
21979;SDS011;11154;48.558;9.234;2022-12-05T11:46:37;6.38;;;4.15;;
21979;SDS011;11154;48.558;9.234;2022-12-05T11:48:54;5.63;;;4.20;;
21979;SDS011;11154;48.558;9.234;2022-12-05T11:51:19;6.72;;;4.45;;
21979;SDS011;11154;48.558;9.234;2022-12-05T11:53:39;6.18;;;4.68;;
21979;SDS011;11154;48.558;9.234;2022-12-05T11:55:59;6.25;;;4.25;;
21979;SDS011;11154;48.558;9.234;2022-12-05T11:58:15;6.90;;;4.35;;
21979;SDS011;11154;48.558;9.234;2022-12-05T12:00:31;7.63;;;4.53;;
21979;SDS011;11154;48.558;9.234;2022-12-05T12:02:47;6.07;;;4.18;;
21979;SDS011;11154;48.558;9.234;2022-12-05T12:05:06;5.50;;;4.20;;
21979;SDS011;11154;48.558;9.234;2022-12-05T12:07:21;5.18;;;3.97;;
21979;SDS011;11154;48.558;9.234;2022-12-05T12:09:36;6.10;;;3.97;;
21979;SDS011;11154;48.558;9.234;2022-12-05T12:11:46;6.90;;;5.13;;
21979;SDS011;11154;48.558;9.234;2022-12-05T12:13:56;6.40;;;3.92;;
21979;SDS011;11154;48.558;9.234;2022-12-05T12:16:07;6.63;;;4.18;;
21979;SDS011;11154;48.558;9.234;2022-12-05T12:18:18;5.43;;;4.15;;
21979;SDS011;11154;48.558;9.234;2022-12-05T12:20:39;5.07;;;4.10;;
21979;SDS011;11154;48.558;9.234;2022-12-05T12:22:56;4.10;;;3.28;;
21979;SDS011;11154;48.558;9.234;2022-12-05T12:25:19;5.20;;;3.78;;
21979;SDS011;11154;48.558;9.234;2022-12-05T12:27:31;5.30;;;3.60;;